Terminal Aerodrome Forecast
Issued by NWS

Home | Current Version | Previous Version | Text Only | Print | Product List | Glossary On
Versions: 1 2 3 4 5 6 7 8 9 10 11 12 13 14 15
235
FTUS44 KLZK 231151
TAFLIT
TAF
KLIT 231151Z 2312/2412 06003KT 5SM BR SKC
     FM231400 09006KT P6SM SCT050
     FM240000 10003KT P6SM SKC
     FM241000 00000KT 5SM BR SKC=

USA.gov is the U.S. government's official web portal to all federal, state and local government web resources and services.